createdAt,value
2023-05-09T00:01:05.081Z,21
2023-05-09T00:16:05.694Z,20
2023-05-09T00:31:04.992Z,20
2023-05-09T00:46:05.467Z,19
2023-05-09T01:01:05.792Z,21
2023-05-09T01:16:05.360Z,22
2023-05-09T01:31:05.846Z,22
2023-05-09T01:46:05.209Z,21
2023-05-09T02:01:05.726Z,23
2023-05-09T02:16:05.298Z,23
2023-05-09T02:31:05.889Z,20
2023-05-09T02:46:05.974Z,23
2023-05-09T03:01:05.189Z,21
2023-05-09T03:16:05.765Z,22
2023-05-09T03:31:05.508Z,23
2023-05-09T03:46:05.779Z,24
2023-05-09T04:01:06.023Z,25
2023-05-09T04:16:05.819Z,23
2023-05-09T04:31:05.889Z,23
2023-05-09T04:46:05.910Z,23
2023-05-09T05:01:04.967Z,22
2023-05-09T05:16:05.696Z,21
2023-05-09T05:31:05.396Z,20
2023-05-09T05:46:05.900Z,18
2023-05-09T06:01:05.981Z,13
2023-05-09T06:16:20.447Z,14
2023-05-09T06:46:05.619Z,10
2023-05-09T07:01:05.720Z,11
2023-05-09T07:16:05.018Z,9
2023-05-09T07:31:05.473Z,12
2023-05-09T07:46:05.250Z,10
2023-05-09T08:01:05.629Z,12
2023-05-09T08:16:05.681Z,8
2023-05-09T08:31:05.106Z,8
2023-05-09T08:46:05.701Z,7
2023-05-09T09:01:04.996Z,8
2023-05-09T09:16:05.599Z,8
2023-05-09T09:31:04.754Z,10
2023-05-09T09:46:05.077Z,5
2023-05-09T10:01:05.657Z,5
2023-05-09T10:16:05.202Z,7
2023-05-09T10:31:08.696Z,6
2023-05-09T10:46:05.650Z,8
2023-05-09T11:01:05.725Z,6
2023-05-09T11:16:05.385Z,4
2023-05-09T11:31:05.681Z,6
2023-05-09T11:46:05.072Z,4
2023-05-09T12:01:04.941Z,5
2023-05-09T12:16:05.354Z,3
2023-05-09T12:31:05.765Z,4
2023-05-09T12:46:05.673Z,6
2023-05-09T13:01:05.246Z,3
2023-05-09T13:16:06.020Z,5
2023-05-09T13:31:05.689Z,4
2023-05-09T13:46:05.519Z,5
2023-05-09T14:01:04.785Z,6
2023-05-09T14:16:05.718Z,3
2023-05-09T14:31:05.733Z,4
2023-05-09T14:46:05.003Z,5
2023-05-09T15:16:05.193Z,5
2023-05-09T15:31:05.217Z,3
2023-05-09T15:46:05.819Z,3
2023-05-09T16:01:05.136Z,4
2023-05-09T16:16:05.154Z,3
2023-05-09T16:31:05.445Z,4
2023-05-09T16:46:05.234Z,6
2023-05-09T17:01:05.500Z,12
2023-05-09T17:16:04.866Z,6
2023-05-09T17:31:05.264Z,6
2023-05-09T17:46:05.918Z,6
2023-05-09T18:01:05.748Z,5
2023-05-09T18:16:05.057Z,8
2023-05-09T18:31:05.696Z,7
2023-05-09T18:46:05.337Z,7
2023-05-09T19:01:04.843Z,9
2023-05-09T19:16:05.019Z,8
2023-05-09T19:31:05.450Z,9
2023-05-09T19:46:05.814Z,9
2023-05-09T20:01:05.348Z,11
2023-05-09T20:16:04.867Z,10
2023-05-09T20:31:05.067Z,15
2023-05-09T20:46:05.020Z,7
2023-05-09T21:01:05.194Z,7
2023-05-09T21:16:05.716Z,8
2023-05-09T21:31:05.272Z,9
2023-05-09T21:46:04.728Z,10
2023-05-09T22:01:05.543Z,11
2023-05-09T22:16:05.267Z,9
2023-05-09T22:31:05.663Z,11
2023-05-09T22:46:05.001Z,11
2023-05-09T23:01:05.345Z,11
2023-05-09T23:16:05.889Z,11
2023-05-09T23:31:05.434Z,12
2023-05-09T23:46:05.872Z,10
